createdAt,value
2022-12-19T00:00:00.271Z,18.63
2022-12-19T00:02:33.805Z,18.92
2022-12-19T00:05:08.047Z,18.75
2022-12-19T00:07:42.287Z,19.77
2022-12-19T00:10:15.338Z,20.17
2022-12-19T00:12:48.163Z,18.92
2022-12-19T00:15:20.956Z,18.45
2022-12-19T00:17:53.739Z,20.40
2022-12-19T00:20:26.826Z,18.52
2022-12-19T00:23:00.964Z,19.23
2022-12-19T00:25:33.830Z,18.10
2022-12-19T00:28:08.197Z,21.27
2022-12-19T00:30:41.014Z,19.85
2022-12-19T00:33:14.134Z,20.13
2022-12-19T00:35:46.987Z,19.35
2022-12-19T00:38:21.208Z,17.67
2022-12-19T00:40:54.096Z,19.50
2022-12-19T00:43:26.904Z,17.90
2022-12-19T00:46:00.031Z,19.52
2022-12-19T00:48:33.050Z,20.88
2022-12-19T00:51:08.766Z,19.23
2022-12-19T00:53:44.620Z,20.55
2022-12-19T00:56:19.368Z,20.27
2022-12-19T00:58:53.917Z,18.70
2022-12-19T01:01:28.754Z,18.92
2022-12-19T01:06:59.775Z,18.05
2022-12-19T01:09:38.132Z,18.15
2022-12-19T01:12:29.488Z,18.38
2022-12-19T01:15:04.207Z,19.80
2022-12-19T01:17:43.980Z,18.02
2022-12-19T01:20:29.183Z,18.50
2022-12-19T01:23:02.955Z,18.40
2022-12-19T01:25:39.116Z,19.30
2022-12-19T01:28:16.717Z,17.85
2022-12-19T01:30:51.503Z,19.38
2022-12-19T01:33:25.099Z,18.83
2022-12-19T01:35:57.972Z,19.02
2022-12-19T01:38:31.186Z,19.30
2022-12-19T01:41:06.024Z,19.35
2022-12-19T01:43:58.424Z,18.48
2022-12-19T01:46:36.394Z,18.10
2022-12-19T01:49:15.706Z,19.33
2022-12-19T01:51:53.168Z,19.48
2022-12-19T01:54:30.813Z,19.95
2022-12-19T01:57:09.248Z,18.77
2022-12-19T01:59:45.245Z,19.15
2022-12-19T02:02:23.905Z,20.50
2022-12-19T02:04:57.154Z,19.30
2022-12-19T02:07:30.806Z,18.52
2022-12-19T02:10:04.048Z,20.38
2022-12-19T02:12:42.381Z,19.02
2022-12-19T02:15:18.299Z,18.75
2022-12-19T02:18:08.719Z,19.63
2022-12-19T02:21:24.034Z,18.45
2022-12-19T02:24:22.287Z,17.80
2022-12-19T02:27:04.148Z,16.67
2022-12-19T02:32:36.132Z,16.35
2022-12-19T02:35:15.876Z,16.95
2022-12-19T02:37:53.988Z,17.80
2022-12-19T02:40:31.123Z,17.90
2022-12-19T02:43:06.020Z,17.88
2022-12-19T02:45:41.046Z,17.17
2022-12-19T02:48:19.330Z,17.58
2022-12-19T02:50:52.508Z,18.90
2022-12-19T02:53:25.345Z,19.55
2022-12-19T02:56:12.437Z,18.45
2022-12-19T02:59:02.134Z,19.52
2022-12-19T03:01:45.433Z,18.15
2022-12-19T03:04:33.382Z,18.45
2022-12-19T03:07:19.431Z,18.25
2022-12-19T03:09:58.427Z,18.55
2022-12-19T03:12:37.127Z,18.52
2022-12-19T03:15:10.557Z,17.80
2022-12-19T03:17:43.850Z,18.58
2022-12-19T03:20:25.431Z,18.70
2022-12-19T03:22:58.280Z,18.17
2022-12-19T03:25:32.083Z,17.92
2022-12-19T03:28:12.010Z,18.70
2022-12-19T03:30:47.629Z,18.05
2022-12-19T03:33:23.453Z,17.60
2022-12-19T03:36:00.547Z,19.10
2022-12-19T03:38:35.439Z,18.10
2022-12-19T03:41:12.078Z,18.67
2022-12-19T03:43:45.860Z,17.67
2022-12-19T03:46:25.760Z,18.67
2022-12-19T03:48:58.718Z,18.45
2022-12-19T03:51:39.550Z,18.10
2022-12-19T03:54:19.131Z,18.20
2022-12-19T03:56:59.281Z,18.92
2022-12-19T03:59:37.145Z,17.48
2022-12-19T04:02:11.761Z,18.02
2022-12-19T04:04:47.899Z,18.83
2022-12-19T04:07:24.324Z,18.88
2022-12-19T04:10:00.244Z,18.05
2022-12-19T04:12:38.509Z,19.60
2022-12-19T04:15:12.133Z,17.83
2022-12-19T04:17:49.417Z,17.92
2022-12-19T04:20:25.647Z,19.05
2022-12-19T04:23:04.195Z,18.75
2022-12-19T04:25:40.270Z,17.27
2022-12-19T04:28:18.551Z,18.15
2022-12-19T04:30:52.227Z,18.83
2022-12-19T04:33:25.079Z,18.35
2022-12-19T04:35:58.162Z,19.48
2022-12-19T04:38:33.154Z,18.55
2022-12-19T04:41:06.132Z,18.25
2022-12-19T04:43:39.361Z,17.60
2022-12-19T04:46:12.229Z,18.00
2022-12-19T04:48:45.159Z,19.00
2022-12-19T04:51:17.975Z,19.25
2022-12-19T04:53:52.262Z,19.98
2022-12-19T04:56:25.519Z,19.83
2022-12-19T04:58:59.085Z,19.60
2022-12-19T05:01:32.353Z,18.88
2022-12-19T05:04:06.456Z,19.75
2022-12-19T05:06:40.056Z,20.20
2022-12-19T05:09:14.632Z,19.40
2022-12-19T05:11:47.671Z,18.55
2022-12-19T05:14:21.325Z,19.02
2022-12-19T05:17:00.370Z,18.52
2022-12-19T05:19:34.391Z,19.52
2022-12-19T05:22:07.694Z,20.42
2022-12-19T05:24:42.059Z,18.30
2022-12-19T05:27:15.063Z,19.48
2022-12-19T05:29:49.556Z,19.60
2022-12-19T05:32:22.413Z,18.88
2022-12-19T05:34:55.437Z,19.80
2022-12-19T05:37:28.669Z,20.08
2022-12-19T05:40:03.021Z,18.65
2022-12-19T05:42:36.020Z,18.88
2022-12-19T05:45:09.847Z,19.85
2022-12-19T05:47:43.953Z,19.75
2022-12-19T05:50:17.714Z,19.58
2022-12-19T05:52:50.808Z,20.02
2022-12-19T05:55:25.387Z,19.25
2022-12-19T05:57:58.307Z,18.75
2022-12-19T06:00:31.957Z,19.00
2022-12-19T06:03:05.233Z,19.52
2022-12-19T06:05:40.103Z,18.65
2022-12-19T06:08:13.129Z,19.55
2022-12-19T06:10:47.678Z,20.25
2022-12-19T06:13:24.912Z,19.92
2022-12-19T06:16:00.095Z,20.58
2022-12-19T06:18:33.344Z,20.73
2022-12-19T06:21:08.607Z,21.30
2022-12-19T06:23:41.968Z,21.80
2022-12-19T06:26:20.151Z,20.95
2022-12-19T06:28:55.863Z,21.35
2022-12-19T06:31:29.318Z,22.10
2022-12-19T06:34:02.499Z,22.48
2022-12-19T06:36:36.056Z,22.88
2022-12-19T06:39:09.043Z,23.17
2022-12-19T06:42:01.096Z,21.15
2022-12-19T06:47:07.313Z,18.40
2022-12-19T06:49:40.393Z,21.25
2022-12-19T06:52:13.516Z,20.50
2022-12-19T06:54:46.919Z,21.73
2022-12-19T06:57:21.939Z,21.45
2022-12-19T06:59:55.022Z,22.02
2022-12-19T07:02:31.256Z,22.58
2022-12-19T07:05:07.311Z,20.45
2022-12-19T07:07:41.318Z,21.67
2022-12-19T07:10:14.266Z,22.10
2022-12-19T07:12:48.697Z,21.13
2022-12-19T07:15:22.055Z,20.77
2022-12-19T07:17:55.460Z,21.42
2022-12-19T07:20:30.642Z,19.77
2022-12-19T07:23:04.714Z,20.92
2022-12-19T07:25:39.465Z,20.98
2022-12-19T07:28:14.437Z,21.30
2022-12-19T07:30:47.305Z,19.75
2022-12-19T07:33:22.947Z,20.17
2022-12-19T07:35:55.855Z,20.73
2022-12-19T07:38:28.758Z,20.65
2022-12-19T07:41:02.331Z,19.85
2022-12-19T07:43:36.673Z,20.33
2022-12-19T07:46:09.796Z,20.98
2022-12-19T07:48:43.055Z,19.58
2022-12-19T07:51:16.053Z,18.60
2022-12-19T07:53:49.188Z,19.58
2022-12-19T07:56:22.247Z,18.83
2022-12-19T07:58:56.837Z,20.25
2022-12-19T08:01:30.085Z,19.30
2022-12-19T08:04:03.360Z,19.45
2022-12-19T08:06:40.854Z,18.88
2022-12-19T08:09:14.943Z,18.08
2022-12-19T08:11:47.963Z,19.77
2022-12-19T08:14:22.809Z,19.67
2022-12-19T08:17:19.896Z,20.85
2022-12-19T08:19:48.556Z,19.83
2022-12-19T08:22:21.337Z,19.90
2022-12-19T08:24:54.257Z,20.83
2022-12-19T08:27:27.691Z,21.25
2022-12-19T08:30:02.167Z,20.42
2022-12-19T08:32:35.058Z,20.35
2022-12-19T08:35:09.008Z,20.83
2022-12-19T08:37:42.270Z,20.08
2022-12-19T08:40:15.963Z,21.77
2022-12-19T08:42:48.762Z,20.83
2022-12-19T08:45:23.235Z,20.98
2022-12-19T08:47:56.841Z,21.00
2022-12-19T08:50:29.639Z,21.85
2022-12-19T08:53:02.512Z,20.67
2022-12-19T08:55:36.853Z,21.08
2022-12-19T08:58:09.756Z,21.00
2022-12-19T09:00:46.523Z,21.48
2022-12-19T09:03:34.073Z,20.75
2022-12-19T09:06:20.228Z,31.50
2022-12-19T09:08:53.900Z,30.65
2022-12-19T09:11:33.347Z,26.80
2022-12-19T09:14:08.944Z,24.92
2022-12-19T09:16:43.115Z,24.25
2022-12-19T09:19:16.647Z,22.08
2022-12-19T09:21:49.394Z,21.67
2022-12-19T09:24:22.163Z,21.75
2022-12-19T09:26:55.010Z,21.67
2022-12-19T09:29:32.205Z,21.95
2022-12-19T09:32:09.516Z,23.13
2022-12-19T09:34:42.367Z,22.08
2022-12-19T09:37:17.697Z,24.33
2022-12-19T09:39:51.074Z,21.92
2022-12-19T09:42:51.595Z,21.52
2022-12-19T09:45:38.606Z,22.58
2022-12-19T09:48:23.602Z,22.27
2022-12-19T09:51:10.220Z,23.25
2022-12-19T09:53:58.346Z,21.83
2022-12-19T09:56:46.007Z,22.42
2022-12-19T09:59:39.709Z,21.52
2022-12-19T10:02:28.241Z,23.42
2022-12-19T10:05:34.838Z,22.33
2022-12-19T10:08:09.683Z,22.88
2022-12-19T10:12:39.116Z,23.15
2022-12-19T10:13:57.346Z,23.10
2022-12-19T10:16:56.321Z,23.17
2022-12-19T10:19:46.903Z,21.40
2022-12-19T10:22:29.327Z,22.55
2022-12-19T10:25:18.841Z,23.73
2022-12-19T10:27:59.158Z,21.95
2022-12-19T10:30:36.935Z,24.30
2022-12-19T10:33:20.673Z,23.65
2022-12-19T10:35:56.384Z,22.95
2022-12-19T10:38:50.320Z,22.27
2022-12-19T10:41:27.010Z,22.85
2022-12-19T10:44:05.720Z,22.92
2022-12-19T10:46:41.191Z,24.40
2022-12-19T10:49:17.290Z,23.75
2022-12-19T10:52:00.849Z,23.27
2022-12-19T10:54:44.100Z,23.92
2022-12-19T10:57:25.802Z,22.50
2022-12-19T11:00:00.605Z,22.58
2022-12-19T11:02:44.776Z,23.67
2022-12-19T11:05:27.592Z,23.23
2022-12-19T11:08:03.319Z,22.48
2022-12-19T11:11:04.287Z,23.52
2022-12-19T11:20:30.689Z,21.77
2022-12-19T11:23:32.790Z,21.85
2022-12-19T11:29:17.028Z,22.23
2022-12-19T11:29:30.356Z,23.27
2022-12-19T11:29:55.166Z,22.85
2022-12-19T11:30:48.000Z,22.27
2022-12-19T11:34:18.698Z,24.20
2022-12-19T11:36:56.937Z,23.00
2022-12-19T11:39:36.454Z,24.10
2022-12-19T11:42:16.672Z,23.17
2022-12-19T11:44:57.177Z,24.77
2022-12-19T11:47:38.068Z,24.83
2022-12-19T11:50:16.479Z,23.55
2022-12-19T11:53:12.992Z,25.13
2022-12-19T11:55:54.114Z,24.33
2022-12-19T11:58:29.973Z,23.23
2022-12-19T12:01:15.538Z,25.92
2022-12-19T12:04:09.049Z,24.98
2022-12-19T12:06:49.141Z,25.83
2022-12-19T12:14:52.161Z,25.88
2022-12-19T12:19:27.933Z,24.50
2022-12-19T12:30:53.667Z,25.80
2022-12-19T12:31:17.721Z,25.33
2022-12-19T12:31:38.743Z,24.35
2022-12-19T12:31:54.115Z,24.30
2022-12-19T12:31:58.103Z,23.33
2022-12-19T12:31:58.825Z,23.40
2022-12-19T12:35:32.769Z,25.48
2022-12-19T12:38:12.271Z,24.63
2022-12-19T12:40:23.624Z,24.70
2022-12-19T12:43:08.196Z,25.48
2022-12-19T12:45:43.211Z,25.60
2022-12-19T12:48:24.638Z,26.10
2022-12-19T12:51:01.349Z,26.10
2022-12-19T12:53:38.230Z,25.63
2022-12-19T12:56:13.987Z,26.58
2022-12-19T12:59:06.344Z,25.42
2022-12-19T13:01:42.219Z,23.98
2022-12-19T13:04:25.294Z,26.45
2022-12-19T13:07:16.425Z,25.38
2022-12-19T13:09:55.643Z,24.70
2022-12-19T13:12:46.899Z,24.55
2022-12-19T13:15:37.049Z,24.40
2022-12-19T13:18:38.765Z,24.38
2022-12-19T13:21:11.585Z,23.85
2022-12-19T13:23:48.572Z,25.48
2022-12-19T13:26:38.968Z,26.08
2022-12-19T13:29:29.732Z,24.42
2022-12-19T13:32:14.429Z,25.42
2022-12-19T13:35:02.825Z,23.52
2022-12-19T13:39:51.095Z,24.95
2022-12-19T13:40:57.344Z,22.77
2022-12-19T13:43:47.969Z,25.33
2022-12-19T13:46:32.296Z,24.75
2022-12-19T13:49:08.292Z,24.95
2022-12-19T13:51:48.107Z,24.30
2022-12-19T13:54:23.995Z,25.65
2022-12-19T13:56:58.254Z,25.60
2022-12-19T13:59:38.937Z,25.08
2022-12-19T14:02:19.075Z,26.08
2022-12-19T14:04:52.478Z,25.35
2022-12-19T14:07:37.427Z,24.00
2022-12-19T14:11:44.168Z,24.00
2022-12-19T14:13:44.688Z,22.67
2022-12-19T14:16:34.719Z,21.75
2022-12-19T14:19:20.887Z,25.33
2022-12-19T14:22:05.492Z,23.23
2022-12-19T14:24:55.289Z,22.80
2022-12-19T14:28:20.710Z,21.08
2022-12-19T14:30:52.648Z,22.35
2022-12-19T14:33:45.140Z,22.08
2022-12-19T14:36:29.238Z,24.33
2022-12-19T14:39:23.899Z,23.92
2022-12-19T14:42:20.401Z,23.38
2022-12-19T14:51:09.062Z,22.35
2022-12-19T14:53:10.880Z,21.92
2022-12-19T14:54:29.062Z,22.08
2022-12-19T14:56:08.664Z,21.85
2022-12-19T14:58:50.472Z,21.65
2022-12-19T15:01:10.369Z,22.05
2022-12-19T15:03:21.321Z,23.00
2022-12-19T15:06:19.750Z,23.38
2022-12-19T15:10:59.006Z,22.75
2022-12-19T15:14:46.784Z,21.63
2022-12-19T15:15:22.883Z,22.67
2022-12-19T15:17:56.773Z,21.15
2022-12-19T15:20:29.671Z,20.75
2022-12-19T15:23:04.149Z,23.50
2022-12-19T15:26:02.874Z,22.63
2022-12-19T15:28:37.801Z,21.90
2022-12-19T15:31:26.969Z,21.48
2022-12-19T15:34:32.858Z,19.88
2022-12-19T15:36:54.014Z,19.50
2022-12-19T15:39:30.524Z,21.17
2022-12-19T15:42:03.950Z,21.58
2022-12-19T15:44:39.115Z,19.67
2022-12-19T15:47:18.365Z,19.80
2022-12-19T15:49:51.281Z,20.48
2022-12-19T15:52:25.718Z,21.10
2022-12-19T15:54:59.927Z,19.20
2022-12-19T15:57:36.430Z,21.20
2022-12-19T16:00:18.501Z,20.23
2022-12-19T16:05:46.031Z,19.52
2022-12-19T16:08:22.844Z,18.58
2022-12-19T16:11:01.718Z,18.13
2022-12-19T16:13:36.161Z,17.73
2022-12-19T16:16:15.829Z,18.33
2022-12-19T16:18:49.497Z,17.15
2022-12-19T16:21:31.574Z,19.70
2022-12-19T16:24:07.251Z,20.33
2022-12-19T16:26:41.849Z,20.10
2022-12-19T16:29:20.159Z,20.42
2022-12-19T16:31:53.101Z,17.98
2022-12-19T16:34:28.937Z,19.92
2022-12-19T16:37:01.999Z,20.08
2022-12-19T16:39:34.970Z,20.83
2022-12-19T16:42:15.671Z,20.05
2022-12-19T16:44:49.319Z,19.30
2022-12-19T16:47:22.871Z,17.88
2022-12-19T16:49:55.813Z,18.27
2022-12-19T16:52:28.890Z,19.05
2022-12-19T16:55:02.036Z,18.17
2022-12-19T16:57:36.480Z,19.08
2022-12-19T17:00:16.134Z,19.95
2022-12-19T17:02:51.590Z,18.77
2022-12-19T17:05:26.585Z,19.23
2022-12-19T17:08:00.119Z,18.90
2022-12-19T17:10:35.120Z,19.88
2022-12-19T17:13:14.093Z,19.40
2022-12-19T17:15:52.624Z,19.90
2022-12-19T17:18:31.874Z,21.00
2022-12-19T17:21:04.838Z,22.10
2022-12-19T17:23:37.675Z,20.40
2022-12-19T17:26:17.298Z,20.60
2022-12-19T17:28:52.146Z,20.08
2022-12-19T17:31:29.085Z,19.42
2022-12-19T17:34:02.215Z,20.05
2022-12-19T17:36:37.863Z,20.55
2022-12-19T17:39:20.236Z,21.75
2022-12-19T17:41:54.261Z,23.05
2022-12-19T17:44:28.771Z,23.15
2022-12-19T17:47:01.747Z,22.85
2022-12-19T17:49:36.000Z,21.73
2022-12-19T17:52:14.633Z,21.58
2022-12-19T17:54:47.951Z,22.35
2022-12-19T17:57:20.807Z,21.38
2022-12-19T17:59:55.012Z,20.80
2022-12-19T18:02:28.693Z,21.17
2022-12-19T18:05:01.799Z,19.83
2022-12-19T18:07:34.678Z,21.02
2022-12-19T18:10:16.044Z,18.75
2022-12-19T18:12:49.017Z,20.95
2022-12-19T18:15:24.691Z,20.20
2022-12-19T18:17:58.825Z,20.60
2022-12-19T18:20:33.754Z,20.70
2022-12-19T18:23:15.344Z,21.02
2022-12-19T18:25:49.095Z,20.63
2022-12-19T18:28:22.006Z,19.85
2022-12-19T18:31:01.289Z,19.67
2022-12-19T18:33:39.273Z,18.85
2022-12-19T18:36:19.768Z,20.00
2022-12-19T18:38:55.093Z,19.17
2022-12-19T18:41:28.048Z,20.98
2022-12-19T18:44:00.907Z,20.75
2022-12-19T18:46:35.910Z,20.83
2022-12-19T18:49:13.697Z,21.30
2022-12-19T18:51:46.664Z,21.77
2022-12-19T18:54:21.634Z,22.35
2022-12-19T18:56:54.472Z,22.48
2022-12-19T18:59:27.728Z,21.65
2022-12-19T19:02:02.222Z,22.55
2022-12-19T19:04:35.312Z,22.05
2022-12-19T19:07:11.190Z,21.98
2022-12-19T19:09:44.057Z,20.05
2022-12-19T19:12:17.865Z,23.08
2022-12-19T19:14:50.717Z,24.75
2022-12-19T19:17:30.522Z,24.30
2022-12-19T19:20:04.135Z,24.02
2022-12-19T19:22:36.937Z,22.48
2022-12-19T19:25:10.613Z,22.33
2022-12-19T19:27:43.534Z,24.10
2022-12-19T19:30:16.810Z,22.00
2022-12-19T19:32:55.235Z,22.55
2022-12-19T19:35:28.702Z,22.63
2022-12-19T19:38:06.651Z,25.77
2022-12-19T19:40:39.717Z,25.05
2022-12-19T19:43:12.819Z,26.25
2022-12-19T19:45:46.870Z,24.95
2022-12-19T19:48:21.370Z,26.38
2022-12-19T19:50:54.389Z,25.58
2022-12-19T19:53:27.389Z,22.02
2022-12-19T19:56:01.962Z,25.33
2022-12-19T19:58:34.930Z,22.95
2022-12-19T20:01:09.332Z,22.13
2022-12-19T20:03:44.858Z,21.48
2022-12-19T20:06:19.285Z,20.30
2022-12-19T20:08:52.238Z,19.85
2022-12-19T20:11:25.094Z,20.98
2022-12-19T20:13:58.055Z,19.77
2022-12-19T20:16:32.248Z,20.23
2022-12-19T20:19:08.778Z,19.77
2022-12-19T20:21:41.777Z,19.00
2022-12-19T20:24:14.682Z,21.63
2022-12-19T20:26:47.798Z,20.88
2022-12-19T20:29:20.755Z,20.63
2022-12-19T20:31:53.891Z,21.25
2022-12-19T20:34:28.147Z,22.52
2022-12-19T20:37:01.085Z,23.05
2022-12-19T20:39:34.464Z,22.40
2022-12-19T20:42:09.496Z,22.40
2022-12-19T20:44:42.376Z,24.88
2022-12-19T20:47:15.722Z,24.45
2022-12-19T20:49:50.014Z,24.73
2022-12-19T20:52:22.889Z,24.98
2022-12-19T20:54:55.751Z,22.95
2022-12-19T20:57:30.437Z,21.73
2022-12-19T21:00:03.496Z,21.20
2022-12-19T21:02:59.946Z,22.90
2022-12-19T21:05:30.533Z,23.83
2022-12-19T21:08:03.489Z,22.55
2022-12-19T21:10:37.313Z,24.23
2022-12-19T21:13:10.332Z,23.83
2022-12-19T21:15:43.335Z,23.30
2022-12-19T21:18:16.468Z,24.35
2022-12-19T21:20:51.105Z,23.83
2022-12-19T21:23:25.366Z,23.17
2022-12-19T21:25:59.839Z,22.00
2022-12-19T21:28:33.416Z,20.73
2022-12-19T21:31:08.968Z,22.15
2022-12-19T21:33:41.861Z,19.92
2022-12-19T21:36:20.231Z,21.27
2022-12-19T21:38:55.568Z,22.17
2022-12-19T21:41:29.522Z,22.58
2022-12-19T21:44:02.455Z,21.98
2022-12-19T21:46:35.357Z,20.23
2022-12-19T21:49:08.741Z,21.88
2022-12-19T21:51:43.008Z,20.73
2022-12-19T21:54:16.102Z,21.00
2022-12-19T21:56:49.211Z,21.10
2022-12-19T21:59:22.156Z,20.58
2022-12-19T22:01:55.151Z,22.27
2022-12-19T22:04:28.625Z,21.80
2022-12-19T22:07:05.660Z,22.92
2022-12-19T22:09:38.521Z,22.05
2022-12-19T22:12:14.017Z,21.73
2022-12-19T22:14:46.937Z,22.52
2022-12-19T22:17:19.899Z,22.20
2022-12-19T22:19:52.773Z,23.20
2022-12-19T22:22:26.975Z,21.85
2022-12-19T22:25:00.145Z,21.30
2022-12-19T22:27:33.108Z,22.05
2022-12-19T22:30:11.129Z,22.48
2022-12-19T22:32:44.312Z,22.30
2022-12-19T22:35:17.826Z,22.40
2022-12-19T22:37:52.120Z,22.67
2022-12-19T22:40:24.989Z,21.73
2022-12-19T22:42:57.893Z,23.00
2022-12-19T22:45:31.744Z,22.08
2022-12-19T22:48:04.776Z,23.40
2022-12-19T22:50:37.743Z,22.73
2022-12-19T22:53:13.068Z,22.77
2022-12-19T22:55:46.080Z,21.70
2022-12-19T22:58:18.932Z,22.63
2022-12-19T23:00:51.868Z,21.80
2022-12-19T23:03:24.826Z,21.38
2022-12-19T23:05:57.885Z,21.13
2022-12-19T23:08:32.436Z,20.40
2022-12-19T23:11:05.853Z,19.60
2022-12-19T23:13:38.745Z,20.63
2022-12-19T23:16:13.306Z,21.08
2022-12-19T23:18:46.314Z,21.27
2022-12-19T23:21:21.454Z,21.00
2022-12-19T23:23:57.142Z,21.63
2022-12-19T23:26:32.674Z,19.67
2022-12-19T23:29:07.950Z,18.20
2022-12-19T23:31:42.876Z,18.27
2022-12-19T23:34:16.453Z,17.60
2022-12-19T23:39:43.414Z,17.63
2022-12-19T23:42:16.192Z,18.08
2022-12-19T23:44:51.411Z,16.85
2022-12-19T23:47:24.234Z,17.15
2022-12-19T23:49:57.097Z,17.13
2022-12-19T23:52:30.098Z,16.65
2022-12-19T23:55:05.339Z,17.73
2022-12-19T23:57:38.291Z,17.33
